Time;durP1;ratioP1;P1;durP2;ratioP2;P2;SDS_P1;SDS_P2;PMS_P1;PMS_P2;Temp;Humidity;BMP_temperature;BMP_pressure;BME280_temperature;BME280_humidity;BME280_pressure;Samples;Min_cycle;Max_cycle;Signal;HPM_P1;HPM_P2
2021/07/17 00:00:07;;;;;;;38.50;17.88;;;;;;;;;;5053477;28;20036;-63
2021/07/17 00:02:33;;;;;;;35.85;17.52;;;;;;;;;;5071482;28;20107;-64
2021/07/17 00:04:59;;;;;;;43.03;18.02;;;;;;;;;;5053368;28;20063;-64
2021/07/17 00:07:25;;;;;;;39.97;18.10;;;;;;;;;;5071134;28;20024;-63
2021/07/17 00:09:52;;;;;;;40.88;21.77;;;;;;;;;;5071479;28;20025;-64
2021/07/17 00:12:18;;;;;;;37.00;17.23;;;;;;;;;;5071280;28;20041;-64
2021/07/17 00:14:44;;;;;;;39.85;18.75;;;;;;;;;;5053267;28;20468;-64
2021/07/17 00:17:10;;;;;;;38.97;20.05;;;;;;;;;;5070741;28;20036;-64
2021/07/17 00:19:36;;;;;;;34.63;16.63;;;;;;;;;;5070973;28;20031;-64
2021/07/17 00:22:02;;;;;;;37.28;17.45;;;;;;;;;;5071272;28;20044;-64
2021/07/17 00:24:28;;;;;;;37.65;16.88;;;;;;;;;;5055889;28;20028;-63
2021/07/17 00:26:54;;;;;;;32.83;17.67;;;;;;;;;;5056517;28;20518;-64
2021/07/17 00:29:20;;;;;;;41.45;22.95;;;;;;;;;;5057163;28;20021;-64
2021/07/17 00:31:45;;;;;;;37.90;17.90;;;;;;;;;;5074717;28;20104;-63
2021/07/17 00:34:11;;;;;;;38.40;16.98;;;;;;;;;;5074620;28;20106;-64
2021/07/17 00:36:37;;;;;;;40.10;16.93;;;;;;;;;;5074353;28;20029;-63
2021/07/17 00:39:03;;;;;;;38.05;18.10;;;;;;;;;;5074580;28;20032;-64
2021/07/17 00:41:29;;;;;;;32.50;17.65;;;;;;;;;;5074605;28;20021;-64
2021/07/17 00:43:56;;;;;;;40.35;17.27;;;;;;;;;;5074388;28;20020;-64
2021/07/17 00:46:22;;;;;;;44.70;19.55;;;;;;;;;;5073956;28;20016;-64
2021/07/17 00:48:48;;;;;;;35.10;17.52;;;;;;;;;;5074482;28;20060;-65
2021/07/17 00:51:16;;;;;;;32.88;17.90;;;;;;;;;;5074312;28;20059;-65
2021/07/17 00:53:42;;;;;;;36.60;16.45;;;;;;;;;;5074321;28;20051;-64
2021/07/17 00:56:08;;;;;;;34.13;16.63;;;;;;;;;;5055963;28;20557;-64
2021/07/17 00:58:36;;;;;;;39.10;18.23;;;;;;;;;;5074086;28;20021;-64
2021/07/17 01:01:02;;;;;;;34.05;16.98;;;;;;;;;;5074131;28;20031;-64
2021/07/17 01:03:29;;;;;;;37.28;15.77;;;;;;;;;;5056288;28;20020;-64
2021/07/17 01:05:55;;;;;;;36.88;18.02;;;;;;;;;;5055838;28;20021;-65
2021/07/17 01:08:21;;;;;;;37.90;17.77;;;;;;;;;;5074118;28;20021;-64
2021/07/17 01:10:47;;;;;;;32.60;17.48;;;;;;;;;;5055861;28;20051;-65
2021/07/17 01:13:14;;;;;;;37.70;17.00;;;;;;;;;;5055757;28;20070;-64
2021/07/17 01:15:40;;;;;;;36.53;17.65;;;;;;;;;;5055397;28;20035;-64
2021/07/17 01:18:06;;;;;;;32.20;16.77;;;;;;;;;;5055861;28;20024;-63
2021/07/17 01:20:33;;;;;;;36.58;17.42;;;;;;;;;;5073768;28;20476;-64
2021/07/17 01:22:59;;;;;;;33.83;15.77;;;;;;;;;;5055700;28;20012;-64
2021/07/17 01:25:26;;;;;;;33.90;16.85;;;;;;;;;;5055791;28;20083;-64
2021/07/17 01:27:53;;;;;;;42.15;17.98;;;;;;;;;;5055864;28;20480;-65
2021/07/17 01:30:21;;;;;;;35.95;16.30;;;;;;;;;;5073663;28;20475;-64
2021/07/17 01:32:47;;;;;;;32.83;17.55;;;;;;;;;;5055692;28;20036;-64
2021/07/17 01:35:14;;;;;;;36.92;17.60;;;;;;;;;;5072535;28;20391;-64
2021/07/17 01:37:40;;;;;;;31.60;17.27;;;;;;;;;;5055370;28;20028;-64
2021/07/17 01:40:07;;;;;;;33.20;16.98;;;;;;;;;;5073447;28;20025;-63
2021/07/17 01:42:36;;;;;;;31.73;16.92;;;;;;;;;;5073339;28;20028;-65
2021/07/17 01:45:03;;;;;;;42.15;19.20;;;;;;;;;;5073145;28;20021;-63
2021/07/17 01:47:29;;;;;;;34.25;18.75;;;;;;;;;;5055062;28;20116;-63
2021/07/17 01:49:55;;;;;;;33.30;16.98;;;;;;;;;;5073185;28;20487;-64
2021/07/17 01:52:21;;;;;;;37.60;18.75;;;;;;;;;;5055367;28;20057;-65
2021/07/17 01:54:47;;;;;;;31.88;15.57;;;;;;;;;;5073210;28;20056;-64
2021/07/17 01:57:13;;;;;;;35.60;17.88;;;;;;;;;;5054798;28;20470;-64
2021/07/17 01:59:40;;;;;;;33.22;16.50;;;;;;;;;;5055248;28;20036;-63
2021/07/17 02:02:09;;;;;;;32.13;17.05;;;;;;;;;;5073021;28;20114;-63
2021/07/17 02:04:35;;;;;;;35.05;15.38;;;;;;;;;;5055017;28;20059;-63
2021/07/17 02:07:02;;;;;;;31.75;15.60;;;;;;;;;;5072632;28;20028;-63
2021/07/17 02:09:28;;;;;;;31.75;15.25;;;;;;;;;;5055116;28;20021;-63
2021/07/17 02:11:54;;;;;;;35.20;14.93;;;;;;;;;;5054965;28;20472;-64
2021/07/17 02:14:20;;;;;;;34.63;16.13;;;;;;;;;;5054897;28;20021;-62
2021/07/17 02:16:47;;;;;;;33.88;16.33;;;;;;;;;;5080100;22;20444;-63
2021/07/17 02:19:17;;;;;;;33.28;16.42;;;;;;;;;;5092018;28;20036;-63
2021/07/17 02:21:45;;;;;;;35.83;16.90;;;;;;;;;;5073901;28;20099;-63
2021/07/17 02:24:11;;;;;;;38.17;17.23;;;;;;;;;;5092223;28;20468;-63
2021/07/17 02:26:37;;;;;;;40.15;17.15;;;;;;;;;;5073671;28;20122;-62
2021/07/17 02:29:03;;;;;;;36.15;16.27;;;;;;;;;;5074100;28;20028;-63
2021/07/17 02:31:29;;;;;;;42.65;18.45;;;;;;;;;;5091998;28;20383;-61
2021/07/17 02:33:55;;;;;;;34.38;17.45;;;;;;;;;;5091748;28;20107;-61
2021/07/17 02:36:23;;;;;;;40.35;17.65;;;;;;;;;;5091639;28;20024;-63
2021/07/17 02:38:49;;;;;;;38.28;17.58;;;;;;;;;;5091701;28;20027;-63
2021/07/17 02:41:15;;;;;;;34.45;17.20;;;;;;;;;;5073634;28;20165;-61
2021/07/17 02:43:41;;;;;;;46.17;18.35;;;;;;;;;;5091699;28;20095;-63
2021/07/17 02:46:07;;;;;;;39.22;17.98;;;;;;;;;;5073305;28;20467;-63
2021/07/17 02:48:33;;;;;;;30.95;16.48;;;;;;;;;;5073802;28;20032;-62
2021/07/17 02:50:59;;;;;;;32.60;16.88;;;;;;;;;;5073481;28;20024;-63
2021/07/17 02:53:25;;;;;;;38.80;16.73;;;;;;;;;;5073457;28;20107;-61
2021/07/17 02:55:51;;;;;;;35.00;16.00;;;;;;;;;;5073506;28;20046;-61
2021/07/17 02:58:17;;;;;;;37.00;16.25;;;;;;;;;;5091884;28;20480;-59
2021/07/17 03:00:43;;;;;;;34.60;17.27;;;;;;;;;;5091937;28;20073;-60
2021/07/17 03:03:12;;;;;;;46.78;17.30;;;;;;;;;;5091662;28;20052;-63
2021/07/17 03:05:38;;;;;;;33.53;15.27;;;;;;;;;;5073375;28;20055;-62
2021/07/17 03:08:05;;;;;;;34.90;15.27;;;;;;;;;;5091829;28;20020;-62
2021/07/17 03:10:32;;;;;;;34.85;15.55;;;;;;;;;;5073535;28;20021;-62
2021/07/17 03:12:58;;;;;;;35.83;15.73;;;;;;;;;;5073788;28;20434;-62
2021/07/17 03:15:24;;;;;;;33.60;15.35;;;;;;;;;;5091871;28;20024;-62
2021/07/17 03:17:50;;;;;;;30.00;15.30;;;;;;;;;;5073334;28;20395;-61
2021/07/17 03:20:16;;;;;;;28.42;15.30;;;;;;;;;;5073927;28;20034;-62
2021/07/17 03:22:42;;;;;;;34.85;15.48;;;;;;;;;;5073512;28;20421;-63
2021/07/17 03:25:09;;;;;;;31.50;15.57;;;;;;;;;;5072714;28;20130;-63
2021/07/17 03:27:35;;;;;;;31.88;15.80;;;;;;;;;;5073105;28;20030;-62
2021/07/17 03:30:02;;;;;;;33.42;16.27;;;;;;;;;;5091493;28;20099;-62
2021/07/17 03:32:28;;;;;;;32.15;15.10;;;;;;;;;;5091306;28;20028;-62
2021/07/17 03:34:54;;;;;;;36.97;16.88;;;;;;;;;;5091389;28;20024;-62
2021/07/17 03:37:20;;;;;;;37.35;15.38;;;;;;;;;;5091048;28;20068;-62
2021/07/17 03:39:46;;;;;;;34.22;14.95;;;;;;;;;;5072831;28;20055;-64
2021/07/17 03:42:12;;;;;;;36.58;14.90;;;;;;;;;;5090945;28;20024;-63
2021/07/17 03:44:38;;;;;;;34.47;15.48;;;;;;;;;;5090881;28;20060;-63
2021/07/17 03:47:06;;;;;;;37.25;14.88;;;;;;;;;;5090489;28;20024;-62
2021/07/17 03:49:32;;;;;;;38.53;15.20;;;;;;;;;;5090787;28;20503;-61
2021/07/17 03:51:57;;;;;;;38.50;17.48;;;;;;;;;;5072599;28;20028;-63
2021/07/17 03:54:25;;;;;;;35.90;16.15;;;;;;;;;;5090773;28;20043;-61
2021/07/17 03:56:51;;;;;;;34.83;14.90;;;;;;;;;;5090371;28;20472;-63
2021/07/17 03:59:17;;;;;;;37.80;16.65;;;;;;;;;;5075401;28;20091;-63
2021/07/17 04:01:43;;;;;;;33.80;16.35;;;;;;;;;;5094518;28;20091;-61
2021/07/17 04:04:12;;;;;;;32.53;14.13;;;;;;;;;;5094445;28;20023;-63
2021/07/17 04:06:38;;;;;;;42.78;14.60;;;;;;;;;;5093913;28;20131;-61
2021/07/17 04:09:04;;;;;;;34.03;14.77;;;;;;;;;;5094333;28;20035;-62
2021/07/17 04:11:31;;;;;;;31.02;15.15;;;;;;;;;;5076058;28;20024;-61
2021/07/17 04:13:57;;;;;;;37.50;16.77;;;;;;;;;;5094356;28;20039;-61
2021/07/17 04:16:23;;;;;;;32.92;15.98;;;;;;;;;;5075777;28;20033;-63
2021/07/17 04:18:49;;;;;;;37.13;15.45;;;;;;;;;;5094226;28;20101;-60
2021/07/17 04:21:15;;;;;;;39.20;14.35;;;;;;;;;;5094145;28;20070;-60
2021/07/17 04:23:41;;;;;;;37.17;15.63;;;;;;;;;;5093993;28;20472;-62
2021/07/17 04:26:07;;;;;;;34.42;15.60;;;;;;;;;;5093881;28;20020;-61
2021/07/17 04:28:34;;;;;;;35.65;16.50;;;;;;;;;;5076052;28;20031;-61
2021/07/17 04:31:00;;;;;;;34.95;16.38;;;;;;;;;;5075941;28;20080;-62
2021/07/17 04:33:26;;;;;;;34.25;16.02;;;;;;;;;;5076138;28;20031;-63
2021/07/17 04:35:52;;;;;;;37.03;15.27;;;;;;;;;;5094149;28;20031;-62
2021/07/17 04:38:19;;;;;;;35.53;17.20;;;;;;;;;;5093992;28;20023;-64
2021/07/17 04:40:45;;;;;;;42.38;17.70;;;;;;;;;;5093780;28;20039;-64
2021/07/17 04:43:11;;;;;;;35.60;17.05;;;;;;;;;;5075722;28;20042;-62
2021/07/17 04:45:37;;;;;;;38.35;17.80;;;;;;;;;;5075269;28;20031;-64
2021/07/17 04:48:06;;;;;;;32.58;16.23;;;;;;;;;;5075779;28;20123;-67
2021/07/17 04:50:33;;;;;;;37.65;16.67;;;;;;;;;;5093597;28;20020;-62
2021/07/17 04:52:59;;;;;;;41.58;16.77;;;;;;;;;;5093694;28;20042;-63
2021/07/17 04:55:26;;;;;;;33.58;15.20;;;;;;;;;;5093328;28;20099;-63
2021/07/17 04:57:52;;;;;;;33.25;16.45;;;;;;;;;;5093093;28;20031;-63
2021/07/17 05:00:21;;;;;;;39.83;16.17;;;;;;;;;;5075202;28;20058;-63
2021/07/17 05:02:51;;;;;;;34.83;17.35;;;;;;;;;;5075267;28;20028;-63
2021/07/17 05:05:17;;;;;;;35.80;15.50;;;;;;;;;;5075126;28;20468;-63
2021/07/17 05:07:44;;;;;;;34.67;16.05;;;;;;;;;;5093253;28;20031;-64
2021/07/17 05:10:11;;;;;;;38.20;15.45;;;;;;;;;;5092348;28;20027;-63
2021/07/17 05:12:37;;;;;;;36.05;14.85;;;;;;;;;;5075248;28;20035;-63
2021/07/17 05:15:05;;;;;;;36.30;17.20;;;;;;;;;;5093280;28;20032;-64
2021/07/17 05:17:31;;;;;;;36.30;15.38;;;;;;;;;;5092692;28;20115;-63
2021/07/17 05:19:57;;;;;;;34.85;15.93;;;;;;;;;;5075256;28;20066;-64
2021/07/17 05:22:23;;;;;;;33.50;16.45;;;;;;;;;;5093361;28;20024;-63
2021/07/17 05:24:49;;;;;;;33.83;14.48;;;;;;;;;;5093133;28;20027;-63
2021/07/17 05:27:14;;;;;;;36.22;15.57;;;;;;;;;;5092803;28;20101;-64
2021/07/17 05:29:40;;;;;;;32.05;15.57;;;;;;;;;;5093186;28;20391;-64
2021/07/17 05:32:07;;;;;;;29.70;15.38;;;;;;;;;;5092840;28;20032;-65
2021/07/17 05:34:32;;;;;;;27.58;13.73;;;;;;;;;;5092674;28;20434;-65
2021/07/17 05:36:58;;;;;;;37.00;16.65;;;;;;;;;;5074214;28;20032;-62
2021/07/17 05:39:24;;;;;;;37.55;16.38;;;;;;;;;;5074952;28;20375;-63
2021/07/17 05:41:50;;;;;;;37.33;14.23;;;;;;;;;;5092647;28;20078;-65
2021/07/17 05:44:16;;;;;;;35.22;14.93;;;;;;;;;;5074516;28;20056;-61
2021/07/17 05:46:42;;;;;;;28.83;13.75;;;;;;;;;;5092167;28;20065;-63
2021/07/17 05:49:08;;;;;;;33.28;13.82;;;;;;;;;;5089286;28;20032;-63
2021/07/17 05:51:34;;;;;;;35.30;13.98;;;;;;;;;;5070692;28;20024;-63
2021/07/17 05:54:00;;;;;;;32.70;14.00;;;;;;;;;;5079261;28;20039;-64
2021/07/17 05:56:26;;;;;;;31.38;14.45;;;;;;;;;;5071708;28;20025;-63
2021/07/17 05:58:52;;;;;;;32.35;14.25;;;;;;;;;;5071907;28;20055;-62
2021/07/17 06:01:18;;;;;;;36.35;14.98;;;;;;;;;;5074070;28;20111;-63
2021/07/17 06:03:46;;;;;;;42.58;15.15;;;;;;;;;;5092263;28;20398;-62
2021/07/17 06:06:12;;;;;;;32.30;13.45;;;;;;;;;;5083901;28;20103;-62
2021/07/17 06:08:38;;;;;;;27.58;12.75;;;;;;;;;;5054012;28;20068;-63
2021/07/17 06:11:04;;;;;;;28.88;12.15;;;;;;;;;;5072070;28;20554;-60
2021/07/17 06:13:30;;;;;;;30.17;13.05;;;;;;;;;;5071910;28;20090;-62
2021/07/17 06:15:56;;;;;;;28.20;13.25;;;;;;;;;;5071685;28;20024;-61
2021/07/17 06:18:22;;;;;;;29.98;12.77;;;;;;;;;;5053531;28;20113;-58
2021/07/17 06:20:48;;;;;;;30.67;14.32;;;;;;;;;;5071558;28;20091;-60
2021/07/17 06:23:14;;;;;;;24.17;11.07;;;;;;;;;;5079270;28;20020;-59
2021/07/17 06:25:40;;;;;;;27.15;10.60;;;;;;;;;;5073549;28;20028;-60
2021/07/17 06:28:06;;;;;;;30.42;11.15;;;;;;;;;;5091269;28;20020;-59
2021/07/17 06:30:32;;;;;;;29.92;10.52;;;;;;;;;;5073638;28;20024;-59
2021/07/17 06:32:58;;;;;;;30.08;11.95;;;;;;;;;;5091715;28;20028;-55
2021/07/17 06:35:24;;;;;;;29.42;10.82;;;;;;;;;;5091483;28;20030;-59
2021/07/17 06:37:50;;;;;;;33.25;10.48;;;;;;;;;;5073635;28;20020;-60
2021/07/17 06:40:17;;;;;;;31.15;10.55;;;;;;;;;;5091680;28;20493;-60
2021/07/17 06:42:44;;;;;;;28.40;9.70;;;;;;;;;;5091596;28;20387;-61
2021/07/17 06:45:10;;;;;;;25.55;9.75;;;;;;;;;;5091312;28;20055;-60
2021/07/17 06:47:36;;;;;;;27.67;9.02;;;;;;;;;;5091477;28;20032;-59
2021/07/17 06:50:03;;;;;;;30.95;10.80;;;;;;;;;;5082749;28;20437;-61
2021/07/17 06:52:29;;;;;;;32.63;10.55;;;;;;;;;;5070997;28;20072;-59
2021/07/17 06:54:55;;;;;;;28.02;10.52;;;;;;;;;;5071210;28;20035;-59
2021/07/17 06:57:21;;;;;;;27.55;10.52;;;;;;;;;;5052985;28;20026;-61
2021/07/17 06:59:47;;;;;;;31.88;10.18;;;;;;;;;;5071110;28;20032;-61
2021/07/17 07:02:13;;;;;;;25.48;10.80;;;;;;;;;;5052970;28;20044;-59
2021/07/17 07:04:39;;;;;;;24.50;9.63;;;;;;;;;;5071252;28;20486;-58
2021/07/17 07:07:05;;;;;;;35.67;19.15;;;;;;;;;;5053129;28;20036;-60
2021/07/17 07:09:30;;;;;;;28.13;10.10;;;;;;;;;;5053287;28;20021;-61
2021/07/17 07:11:56;;;;;;;22.08;8.85;;;;;;;;;;5071046;28;20438;-61
2021/07/17 07:14:22;;;;;;;28.80;10.00;;;;;;;;;;5070987;28;20060;-62
2021/07/17 07:16:49;;;;;;;26.77;9.60;;;;;;;;;;5070573;28;20047;-60
2021/07/17 07:19:15;;;;;;;23.77;10.52;;;;;;;;;;5070932;28;20056;-61
2021/07/17 07:21:41;;;;;;;21.77;9.35;;;;;;;;;;5070955;28;20020;-61
2021/07/17 07:24:07;;;;;;;29.80;8.77;;;;;;;;;;5060619;28;20123;-61
2021/07/17 07:26:33;;;;;;;23.85;8.98;;;;;;;;;;5090690;28;20028;-60
2021/07/17 07:28:59;;;;;;;24.90;8.65;;;;;;;;;;5090964;28;20035;-61
2021/07/17 07:31:26;;;;;;;23.98;9.48;;;;;;;;;;5072999;28;20111;-60
2021/07/17 07:33:52;;;;;;;20.92;8.57;;;;;;;;;;5093011;28;20024;-60
2021/07/17 07:36:21;;;;;;;21.25;9.20;;;;;;;;;;5095283;28;20086;-61
2021/07/17 07:38:47;;;;;;;20.88;7.90;;;;;;;;;;5076765;28;20402;-58
2021/07/17 07:41:13;;;;;;;26.67;9.25;;;;;;;;;;5077030;28;20020;-60
2021/07/17 07:43:41;;;;;;;23.20;8.35;;;;;;;;;;5094934;28;20056;-59
2021/07/17 07:46:07;;;;;;;23.65;9.30;;;;;;;;;;5094566;28;20054;-53
2021/07/17 07:48:33;;;;;;;23.17;8.07;;;;;;;;;;5094813;28;20157;-58
2021/07/17 07:51:00;;;;;;;27.95;9.05;;;;;;;;;;5076465;28;20387;-61
2021/07/17 07:53:26;;;;;;;22.45;8.23;;;;;;;;;;5076471;28;20471;-59
2021/07/17 07:55:52;;;;;;;25.10;9.38;;;;;;;;;;5094659;28;20024;-59
2021/07/17 07:58:18;;;;;;;25.30;8.52;;;;;;;;;;5094294;28;20039;-59
2021/07/17 08:00:44;;;;;;;23.50;9.38;;;;;;;;;;5094538;28;20392;-61
2021/07/17 08:03:10;;;;;;;27.38;9.05;;;;;;;;;;5094601;28;20028;-61
2021/07/17 08:05:36;;;;;;;19.92;8.95;;;;;;;;;;5076318;28;20044;-62
2021/07/17 08:08:02;;;;;;;25.40;8.30;;;;;;;;;;5094315;28;20024;-59
2021/07/17 08:10:28;;;;;;;23.33;8.65;;;;;;;;;;5094388;28;20028;-62
2021/07/17 08:12:54;;;;;;;22.02;8.65;;;;;;;;;;5094171;28;20033;-62
2021/07/17 08:15:20;;;;;;;22.00;7.85;;;;;;;;;;5093954;28;20036;-60
2021/07/17 08:17:46;;;;;;;22.30;8.65;;;;;;;;;;5105653;22;20045;-61
2021/07/17 08:20:12;;;;;;;20.73;8.40;;;;;;;;;;5057025;28;20388;-61
2021/07/17 08:22:39;;;;;;;20.15;7.93;;;;;;;;;;5056987;28;20024;-59
2021/07/17 08:25:06;;;;;;;20.52;8.65;;;;;;;;;;5056842;28;20025;-61
2021/07/17 08:27:32;;;;;;;20.25;8.20;;;;;;;;;;5074743;28;20392;-61
2021/07/17 08:29:58;;;;;;;23.75;9.40;;;;;;;;;;5073735;28;20032;-57
2021/07/17 08:32:24;;;;;;;21.60;7.63;;;;;;;;;;5074271;28;20028;-60
2021/07/17 08:34:52;;;;;;;17.10;7.60;;;;;;;;;;5073308;28;20024;-61
2021/07/17 08:37:18;;;;;;;22.73;7.70;;;;;;;;;;5074220;28;20028;-62
2021/07/17 08:39:44;;;;;;;18.65;7.47;;;;;;;;;;5073276;28;20043;-61
2021/07/17 08:42:10;;;;;;;24.75;9.05;;;;;;;;;;5073209;28;20017;-61
2021/07/17 08:44:40;;;;;;;21.25;8.70;;;;;;;;;;5073841;28;20046;-61
2021/07/17 08:47:07;;;;;;;22.70;8.88;;;;;;;;;;5073740;28;20020;-60
2021/07/17 08:49:34;;;;;;;21.08;8.35;;;;;;;;;;5072966;28;20021;-62
2021/07/17 08:52:02;;;;;;;22.55;8.98;;;;;;;;;;5072690;28;20029;-60
2021/07/17 08:54:29;;;;;;;21.30;8.20;;;;;;;;;;5074286;28;20031;-61
2021/07/17 08:56:56;;;;;;;21.27;8.25;;;;;;;;;;5073858;28;20074;-62
2021/07/17 08:59:22;;;;;;;19.05;7.40;;;;;;;;;;5074146;28;20023;-61
2021/07/17 09:01:49;;;;;;;22.48;7.80;;;;;;;;;;5072639;28;20016;-60
2021/07/17 09:04:15;;;;;;;20.27;8.07;;;;;;;;;;5074062;28;20393;-61
2021/07/17 09:06:41;;;;;;;19.65;8.32;;;;;;;;;;5073610;28;20025;-59
2021/07/17 09:09:08;;;;;;;23.08;8.23;;;;;;;;;;5072396;28;20423;-60
2021/07/17 09:11:34;;;;;;;19.92;8.13;;;;;;;;;;5074022;28;20052;-61
2021/07/17 09:14:01;;;;;;;21.27;8.68;;;;;;;;;;5073875;28;20035;-61
2021/07/17 09:16:30;;;;;;;19.95;7.68;;;;;;;;;;5073829;28;20433;-60
2021/07/17 09:18:56;;;;;;;20.25;8.43;;;;;;;;;;5073546;28;20107;-61
2021/07/17 09:21:22;;;;;;;19.85;8.82;;;;;;;;;;5074052;28;20400;-61
2021/07/17 09:23:51;;;;;;;16.83;8.02;;;;;;;;;;5073824;28;20052;-62
2021/07/17 09:26:19;;;;;;;18.55;8.18;;;;;;;;;;5072439;28;20503;-59
2021/07/17 09:28:54;;;;;;;20.33;8.17;;;;;;;;;;5073233;28;20543;-61
2021/07/17 09:31:20;;;;;;;19.23;7.75;;;;;;;;;;5073593;28;20275;-53
2021/07/17 09:33:49;;;;;;;17.77;7.70;;;;;;;;;;5073621;28;20399;-61
2021/07/17 09:36:16;;;;;;;23.20;8.07;;;;;;;;;;5072046;28;20021;-59
2021/07/17 09:38:48;;;;;;;21.38;7.30;;;;;;;;;;5073339;28;20024;-61
2021/07/17 09:41:14;;;;;;;20.35;7.95;;;;;;;;;;5073474;28;20025;-61
2021/07/17 09:43:42;;;;;;;17.27;7.18;;;;;;;;;;5073132;28;20062;-61
2021/07/17 09:46:17;;;;;;;19.88;7.50;;;;;;;;;;5073019;28;20024;-59
2021/07/17 09:48:47;;;;;;;20.67;8.02;;;;;;;;;;5072951;28;20103;-59
2021/07/17 09:51:18;;;;;;;21.90;8.23;;;;;;;;;;5073009;28;20028;-58
2021/07/17 09:53:46;;;;;;;18.25;7.63;;;;;;;;;;5073228;28;20483;-60
2021/07/17 09:56:14;;;;;;;16.60;7.80;;;;;;;;;;5072436;28;20093;-62
2021/07/17 09:58:40;;;;;;;18.73;8.67;;;;;;;;;;5073557;28;20384;-60
2021/07/17 10:01:12;;;;;;;19.70;8.05;;;;;;;;;;5073269;28;20025;-61
2021/07/17 10:03:39;;;;;;;19.60;7.90;;;;;;;;;;5054996;28;20103;-61
2021/07/17 10:06:05;;;;;;;21.13;8.52;;;;;;;;;;5054885;28;20449;-62
2021/07/17 10:08:36;;;;;;;19.42;9.15;;;;;;;;;;5072855;28;20054;-61
2021/07/17 10:11:11;;;;;;;20.63;7.40;;;;;;;;;;5072796;28;20544;-59
2021/07/17 10:13:38;;;;;;;18.90;7.40;;;;;;;;;;5072659;28;20572;-60
2021/07/17 10:16:23;;;;;;;19.48;8.50;;;;;;;;;;5072377;28;20024;-62
2021/07/17 10:18:51;;;;;;;17.77;7.90;;;;;;;;;;5072592;28;20028;-61
2021/07/17 10:21:17;;;;;;;20.17;7.82;;;;;;;;;;5072544;28;20029;-61
2021/07/17 10:23:44;;;;;;;19.75;7.80;;;;;;;;;;5054891;28;20424;-61
2021/07/17 10:26:10;;;;;;;17.52;8.35;;;;;;;;;;5072069;28;20024;-62
2021/07/17 10:28:37;;;;;;;15.63;7.45;;;;;;;;;;5054535;28;20077;-63
2021/07/17 10:31:03;;;;;;;18.27;7.85;;;;;;;;;;5054665;28;20044;-60
2021/07/17 10:33:31;;;;;;;16.05;7.95;;;;;;;;;;5054555;28;20024;-61
2021/07/17 10:35:58;;;;;;;18.58;7.93;;;;;;;;;;5072029;28;20024;-63
2021/07/17 10:38:24;;;;;;;20.02;7.50;;;;;;;;;;5054662;28;20467;-62
2021/07/17 10:40:51;;;;;;;18.98;8.23;;;;;;;;;;5072953;28;20024;-59
2021/07/17 10:43:17;;;;;;;18.10;7.38;;;;;;;;;;5054978;28;20017;-63
2021/07/17 10:45:44;;;;;;;18.52;8.65;;;;;;;;;;5073599;28;20021;-62
2021/07/17 10:48:29;;;;;;;16.15;7.68;;;;;;;;;;5072331;28;20048;-62
2021/07/17 10:50:56;;;;;;;16.80;7.75;;;;;;;;;;5072740;28;20431;-62
2021/07/17 10:53:41;;;;;;;16.75;7.45;;;;;;;;;;5054456;28;20086;-60
2021/07/17 10:56:25;;;;;;;17.27;7.90;;;;;;;;;;5071828;28;20056;-62
2021/07/17 10:58:51;;;;;;;19.85;8.18;;;;;;;;;;5054139;28;20110;-59
2021/07/17 11:01:18;;;;;;;18.00;8.13;;;;;;;;;;5054389;28;20434;-61
2021/07/17 11:03:45;;;;;;;16.92;7.55;;;;;;;;;;5071705;28;20387;-61
2021/07/17 11:06:27;;;;;;;17.88;7.45;;;;;;;;;;5071625;28;20024;-62
2021/07/17 11:08:54;;;;;;;24.02;8.20;;;;;;;;;;5053059;28;20025;-62
2021/07/17 11:11:31;;;;;;;17.52;8.38;;;;;;;;;;5072162;28;20048;-62
2021/07/17 11:13:57;;;;;;;18.70;7.80;;;;;;;;;;5054111;28;20025;-62
2021/07/17 11:16:53;;;;;;;17.77;8.40;;;;;;;;;;5071762;28;20631;-59
2021/07/17 11:19:18;;;;;;;17.65;8.48;;;;;;;;;;5050705;28;20052;-61
2021/07/17 11:21:45;;;;;;;18.27;8.95;;;;;;;;;;5072171;28;20028;-62
2021/07/17 11:24:13;;;;;;;16.95;9.30;;;;;;;;;;5072017;28;20531;-61
2021/07/17 11:26:39;;;;;;;15.52;8.30;;;;;;;;;;5053811;28;20020;-62
2021/07/17 11:29:09;;;;;;;19.10;8.40;;;;;;;;;;5072474;28;20048;-62
2021/07/17 11:31:39;;;;;;;17.25;9.07;;;;;;;;;;5072745;28;20021;-63
2021/07/17 11:34:14;;;;;;;19.15;8.73;;;;;;;;;;5071867;28;20488;-63
2021/07/17 11:36:44;;;;;;;15.38;8.52;;;;;;;;;;5071826;28;20108;-61
2021/07/17 11:39:11;;;;;;;17.42;9.15;;;;;;;;;;5072981;28;20132;-63
2021/07/17 11:41:37;;;;;;;18.77;10.20;;;;;;;;;;5055049;28;20047;-62
2021/07/17 11:44:03;;;;;;;15.85;10.13;;;;;;;;;;5055083;28;20052;-63
2021/07/17 11:46:30;;;;;;;16.05;10.18;;;;;;;;;;5072944;28;20029;-62
2021/07/17 11:49:02;;;;;;;16.52;10.73;;;;;;;;;;5072155;28;20480;-62
2021/07/17 11:51:28;;;;;;;17.20;11.15;;;;;;;;;;5053846;28;20496;-63
2021/07/17 11:53:58;;;;;;;19.73;11.45;;;;;;;;;;5071793;28;20361;-62
2021/07/17 11:56:25;;;;;;;19.58;11.35;;;;;;;;;;5071390;28;20396;-64
2021/07/17 11:58:51;;;;;;;17.02;11.15;;;;;;;;;;5071293;28;20025;-63
2021/07/17 12:01:20;;;;;;;18.23;11.60;;;;;;;;;;5053559;28;20183;-63
2021/07/17 12:03:55;;;;;;;17.25;11.50;;;;;;;;;;5071300;28;20023;-64
2021/07/17 12:06:27;;;;;;;16.85;11.10;;;;;;;;;;5053437;28;20519;-62
2021/07/17 12:08:53;;;;;;;17.10;10.98;;;;;;;;;;5070916;28;20393;-63
2021/07/17 12:11:20;;;;;;;17.52;11.70;;;;;;;;;;5052524;28;20028;-64
2021/07/17 12:13:46;;;;;;;16.60;11.13;;;;;;;;;;5070464;28;20529;-62
2021/07/17 12:16:22;;;;;;;17.20;11.75;;;;;;;;;;5052653;28;20028;-61
2021/07/17 12:18:57;;;;;;;18.73;12.07;;;;;;;;;;5070779;28;20462;-66
2021/07/17 12:21:23;;;;;;;19.83;12.30;;;;;;;;;;5074613;28;20027;-65
2021/07/17 12:23:58;;;;;;;16.77;11.93;;;;;;;;;;5056842;28;20025;-63
2021/07/17 12:26:24;;;;;;;17.58;11.75;;;;;;;;;;5057153;28;20074;-66
2021/07/17 12:28:54;;;;;;;18.70;12.05;;;;;;;;;;5074605;28;20047;-65
2021/07/17 12:31:20;;;;;;;19.80;13.02;;;;;;;;;;5074514;28;20047;-65
2021/07/17 12:33:47;;;;;;;18.02;11.88;;;;;;;;;;5074268;28;20024;-63
2021/07/17 12:36:15;;;;;;;17.27;11.73;;;;;;;;;;5056481;28;20055;-63
2021/07/17 12:38:41;;;;;;;17.37;11.33;;;;;;;;;;5074705;28;20100;-63
2021/07/17 12:41:13;;;;;;;18.60;11.98;;;;;;;;;;5074131;28;20286;-63
2021/07/17 12:43:43;;;;;;;16.88;11.80;;;;;;;;;;5074012;28;20025;-61
2021/07/17 12:46:09;;;;;;;16.98;11.75;;;;;;;;;;5074216;28;20380;-63
2021/07/17 12:48:47;;;;;;;16.52;11.57;;;;;;;;;;5074068;28;20020;-63
2021/07/17 12:51:15;;;;;;;17.13;11.30;;;;;;;;;;5073859;28;20736;-64
2021/07/17 12:53:45;;;;;;;18.23;12.10;;;;;;;;;;5074317;28;20075;-63
2021/07/17 12:56:13;;;;;;;16.45;11.88;;;;;;;;;;5055936;28;20048;-63
2021/07/17 12:58:39;;;;;;;17.42;12.25;;;;;;;;;;5074020;28;20081;-64
2021/07/17 13:01:05;;;;;;;16.55;11.88;;;;;;;;;;5074052;28;20028;-63
2021/07/17 13:03:32;;;;;;;16.10;11.77;;;;;;;;;;5073618;28;20028;-64
2021/07/17 13:05:58;;;;;;;16.85;11.75;;;;;;;;;;5073612;28;20028;-64
2021/07/17 13:08:27;;;;;;;17.67;12.68;;;;;;;;;;5055893;28;20032;-64
2021/07/17 13:10:55;;;;;;;17.70;12.32;;;;;;;;;;5073965;28;20434;-64
2021/07/17 13:13:20;;;;;;;;;;;;;;;;;;5056775;28;20415;-64
2021/07/17 13:15:56;;;;;;;16.70;11.75;;;;;;;;;;5055456;28;20015;-63
2021/07/17 13:18:23;;;;;;;17.25;11.75;;;;;;;;;;5055291;28;20024;-63
2021/07/17 13:21:05;;;;;;;18.03;12.33;;;;;;;;;;5055966;28;20032;-63
2021/07/17 13:23:49;;;;;;;16.80;11.80;;;;;;;;;;5065844;28;20085;-64
2021/07/17 13:26:18;;;;;;;16.10;11.40;;;;;;;;;;5038155;28;20099;-64
2021/07/17 13:28:44;;;;;;;19.20;13.93;;;;;;;;;;5053431;28;20548;-63
2021/07/17 13:31:17;;;;;;;17.23;11.65;;;;;;;;;;5052399;28;20035;-62
2021/07/17 13:33:43;;;;;;;18.13;11.85;;;;;;;;;;5053087;28;20033;-64
2021/07/17 13:36:09;;;;;;;17.92;10.93;;;;;;;;;;5053338;28;20077;-64
2021/07/17 13:38:36;;;;;;;16.17;11.40;;;;;;;;;;5053145;28;20036;-63
2021/07/17 13:41:09;;;;;;;16.98;11.43;;;;;;;;;;5035691;28;20473;-64
2021/07/17 13:43:35;;;;;;;15.80;11.25;;;;;;;;;;5053482;28;20052;-64
2021/07/17 13:46:02;;;;;;;16.65;11.18;;;;;;;;;;5052987;28;20473;-64
2021/07/17 13:48:28;;;;;;;17.15;11.35;;;;;;;;;;5035014;28;20033;-64
2021/07/17 13:51:03;;;;;;;17.92;11.20;;;;;;;;;;5068762;28;20035;-63
2021/07/17 13:53:29;;;;;;;16.88;11.50;;;;;;;;;;5093453;28;20028;-63
2021/07/17 13:56:04;;;;;;;16.10;11.05;;;;;;;;;;5093115;28;20031;-64
2021/07/17 13:58:29;;;;;;;16.27;11.75;;;;;;;;;;5075213;28;20663;-64
2021/07/17 14:00:55;;;;;;;17.58;11.60;;;;;;;;;;5093518;28;20073;-64
2021/07/17 14:03:23;;;;;;;19.48;11.48;;;;;;;;;;5075224;28;20360;-64
2021/07/17 14:05:53;;;;;;;16.75;11.20;;;;;;;;;;5074667;28;20468;-64
2021/07/17 14:08:19;;;;;;;15.75;10.90;;;;;;;;;;5092867;28;20077;-62
2021/07/17 14:10:46;;;;;;;17.45;10.93;;;;;;;;;;5093275;28;20031;-65
2021/07/17 14:13:13;;;;;;;16.88;11.60;;;;;;;;;;5074232;28;20035;-64
2021/07/17 14:15:40;;;;;;;17.00;11.65;;;;;;;;;;5074600;28;20028;-64
2021/07/17 14:18:06;;;;;;;15.60;12.23;;;;;;;;;;5097859;22;20194;-66
2021/07/17 14:20:32;;;;;;;17.33;11.88;;;;;;;;;;5053768;28;20373;-66